URO665 LFML-LEZL
Flight info
| Callsign | URO665 |
|---|---|
| Flight time | 1h 34m |
| Altitude | 39000 |
| Route | MAMES6N MAMES M984 BISBA N975 BCN M985 YES N747 BLN BLN2K |
| Aircraft | A346/H-SDE2E3FGHIJ3J4J5M1RWXY/LB1D1 |
Departure
| Time | 2026-03-27 09:18 |
|---|---|
| Airport | Marseille Provence Airport (LFML) |
Arrival
| Time | 2026-03-27 10:52 |
|---|---|
| Airport | Seville Airport (LEZL) |
| Time | Latitude | Longitude | Altitude | Speed | Heading |
|---|---|---|---|---|---|
| 2026-03-27 08:55 | 43.44623 | 5.21735 | 46 ft | 0 kts | 326° |
| 2026-03-27 09:06 | 43.44614 | 5.21743 | 45 ft | 3 kts | 322° |
| 2026-03-27 09:06 | 43.44599 | 5.21761 | 45 ft | 3 kts | 316° |
| 2026-03-27 09:07 | 43.44585 | 5.21779 | 42 ft | 2 kts | 319° |
| 2026-03-27 09:07 | 43.44576 | 5.21790 | 43 ft | 3 kts | 325° |
| 2026-03-27 09:07 | 43.44572 | 5.21793 | 43 ft | 0 kts | 328° |
| 2026-03-27 09:11 | 43.44574 | 5.21791 | 46 ft | 1 kts | 317° |
| 2026-03-27 09:11 | 43.44575 | 5.21777 | 46 ft | 3 kts | 246° |
| 2026-03-27 09:11 | 43.44526 | 5.21731 | 46 ft | 12 kts | 214° |
| 2026-03-27 09:12 | 43.44437 | 5.21670 | 46 ft | 15 kts | 201° |
| 2026-03-27 09:12 | 43.44373 | 5.21603 | 46 ft | 12 kts | 237° |
| 2026-03-27 09:12 | 43.44325 | 5.21488 | 46 ft | 15 kts | 240° |
| 2026-03-27 09:12 | 43.44268 | 5.21346 | 46 ft | 16 kts | 242° |
| 2026-03-27 09:13 | 43.44215 | 5.21210 | 45 ft | 13 kts | 237° |
| 2026-03-27 09:13 | 43.44131 | 5.21196 | 45 ft | 16 kts | 134° |
| 2026-03-27 09:13 | 43.44041 | 5.21318 | 45 ft | 21 kts | 135° |
| 2026-03-27 09:13 | 43.43945 | 5.21452 | 46 ft | 15 kts | 134° |
| 2026-03-27 09:14 | 43.43932 | 5.21565 | 46 ft | 13 kts | 58° |
| 2026-03-27 09:14 | 43.43980 | 5.21669 | 46 ft | 11 kts | 92° |
| 2026-03-27 09:14 | 43.43930 | 5.21777 | 46 ft | 16 kts | 134° |
| 2026-03-27 09:14 | 43.43842 | 5.21901 | 46 ft | 20 kts | 134° |
| 2026-03-27 09:15 | 43.43728 | 5.22039 | 46 ft | 24 kts | 149° |
| 2026-03-27 09:15 | 43.43584 | 5.22154 | 46 ft | 24 kts | 150° |
| 2026-03-27 09:15 | 43.43450 | 5.22260 | 46 ft | 17 kts | 151° |
| 2026-03-27 09:15 | 43.43379 | 5.22279 | 46 ft | 11 kts | 198° |
| 2026-03-27 09:16 | 43.43335 | 5.22201 | 46 ft | 12 kts | 264° |
| 2026-03-27 09:16 | 43.43333 | 5.22068 | 45 ft | 14 kts | 269° |
| 2026-03-27 09:16 | 43.43333 | 5.21990 | 44 ft | 3 kts | 281° |
| 2026-03-27 09:16 | 43.43344 | 5.21969 | 44 ft | 0 kts | 314° |
| 2026-03-27 09:17 | 43.43370 | 5.21933 | 43 ft | 25 kts | 314° |
| 2026-03-27 09:17 | 43.43650 | 5.21535 | 45 ft | 89 kts | 314° |
| 2026-03-27 09:17 | 43.44212 | 5.20731 | 46 ft | 140 kts | 314° |
| 2026-03-27 09:17 | 43.44887 | 5.19701 | 601 ft | 147 kts | 315° |
| 2026-03-27 09:18 | 43.45580 | 5.18648 | 1295 ft | 150 kts | 318° |
| 2026-03-27 09:18 | 43.46309 | 5.17582 | 1869 ft | 159 kts | 320° |
| 2026-03-27 09:18 | 43.47073 | 5.16398 | 2277 ft | 173 kts | 310° |
| 2026-03-27 09:18 | 43.47437 | 5.14748 | 2656 ft | 196 kts | 284° |
| 2026-03-27 09:19 | 43.47102 | 5.12806 | 3017 ft | 227 kts | 252° |
| 2026-03-27 09:19 | 43.45887 | 5.11244 | 3307 ft | 254 kts | 210° |
| 2026-03-27 09:19 | 43.44186 | 5.10462 | 3608 ft | 261 kts | 197° |
| 2026-03-27 09:19 | 43.42396 | 5.09878 | 4160 ft | 267 kts | 194° |
| 2026-03-27 09:20 | 43.40586 | 5.09302 | 5046 ft | 266 kts | 193° |
| 2026-03-27 09:20 | 43.38791 | 5.08700 | 5955 ft | 265 kts | 193° |
| 2026-03-27 09:20 | 43.36967 | 5.08095 | 6664 ft | 276 kts | 192° |
| 2026-03-27 09:20 | 43.35045 | 5.07479 | 7251 ft | 293 kts | 193° |
| 2026-03-27 09:21 | 43.33001 | 5.06819 | 7855 ft | 310 kts | 193° |
| 2026-03-27 09:21 | 43.30886 | 5.06130 | 8853 ft | 312 kts | 193° |
| 2026-03-27 09:21 | 43.28743 | 5.05427 | 9674 ft | 323 kts | 193° |
| 2026-03-27 09:21 | 43.26524 | 5.04694 | 10394 ft | 333 kts | 194° |
| 2026-03-27 09:22 | 43.24246 | 5.03946 | 10937 ft | 349 kts | 194° |
| 2026-03-27 09:22 | 43.21837 | 5.03051 | 11408 ft | 367 kts | 204° |
| 2026-03-27 09:22 | 43.19616 | 5.01241 | 11841 ft | 377 kts | 226° |
| 2026-03-27 09:22 | 43.17831 | 4.98553 | 12305 ft | 388 kts | 238° |
| 2026-03-27 09:23 | 43.16137 | 4.95581 | 12843 ft | 402 kts | 240° |
| 2026-03-27 09:23 | 43.14392 | 4.92507 | 13513 ft | 413 kts | 240° |
| 2026-03-27 09:23 | 43.12590 | 4.89393 | 14212 ft | 422 kts | 240° |
| 2026-03-27 09:23 | 43.10728 | 4.86229 | 14974 ft | 427 kts | 240° |
| 2026-03-27 09:24 | 43.09482 | 4.84136 | 15540 ft | 429 kts | 239° |
| 2026-03-27 09:24 | 43.07571 | 4.80951 | 16349 ft | 435 kts | 238° |
| 2026-03-27 09:24 | 43.05535 | 4.77833 | 17132 ft | 442 kts | 236° |
| 2026-03-27 09:24 | 43.03429 | 4.74728 | 17936 ft | 447 kts | 234° |
| 2026-03-27 09:25 | 43.01282 | 4.71619 | 18680 ft | 451 kts | 234° |
| 2026-03-27 09:25 | 42.99104 | 4.68478 | 19359 ft | 456 kts | 234° |
| 2026-03-27 09:25 | 42.96911 | 4.65315 | 20029 ft | 460 kts | 234° |
| 2026-03-27 09:25 | 42.94700 | 4.62123 | 20671 ft | 464 kts | 234° |
| 2026-03-27 09:26 | 42.92504 | 4.58951 | 21298 ft | 468 kts | 234° |
| 2026-03-27 09:26 | 42.90257 | 4.55704 | 21948 ft | 471 kts | 234° |
| 2026-03-27 09:26 | 42.88000 | 4.52441 | 22669 ft | 474 kts | 234° |
| 2026-03-27 09:26 | 42.85724 | 4.49161 | 23363 ft | 478 kts | 234° |
| 2026-03-27 09:27 | 42.83422 | 4.45846 | 23938 ft | 482 kts | 234° |
| 2026-03-27 09:27 | 42.81105 | 4.42512 | 24458 ft | 487 kts | 234° |
| 2026-03-27 09:27 | 42.78763 | 4.39145 | 25000 ft | 491 kts | 234° |
| 2026-03-27 09:27 | 42.76403 | 4.35757 | 25497 ft | 495 kts | 234° |
| 2026-03-27 09:28 | 42.74021 | 4.32342 | 26018 ft | 499 kts | 234° |
| 2026-03-27 09:28 | 42.71618 | 4.28901 | 26520 ft | 503 kts | 234° |
| 2026-03-27 09:28 | 42.69195 | 4.25436 | 27007 ft | 507 kts | 234° |
| 2026-03-27 09:28 | 42.66749 | 4.21940 | 27488 ft | 510 kts | 234° |
| 2026-03-27 09:29 | 42.64298 | 4.18446 | 28074 ft | 511 kts | 233° |
| 2026-03-27 09:29 | 42.61838 | 4.14939 | 28658 ft | 514 kts | 233° |
| 2026-03-27 09:29 | 42.59359 | 4.11410 | 29198 ft | 518 kts | 233° |
| 2026-03-27 09:29 | 42.56861 | 4.07859 | 29654 ft | 522 kts | 233° |
| 2026-03-27 09:30 | 42.54342 | 4.04282 | 30064 ft | 526 kts | 233° |
| 2026-03-27 09:30 | 42.51798 | 4.00674 | 30445 ft | 528 kts | 233° |
| 2026-03-27 09:30 | 42.49298 | 3.97141 | 31101 ft | 525 kts | 233° |
| 2026-03-27 09:30 | 42.46772 | 3.93580 | 31855 ft | 521 kts | 233° |
| 2026-03-27 09:31 | 42.44267 | 3.90048 | 32610 ft | 518 kts | 234° |
| 2026-03-27 09:31 | 42.41777 | 3.86538 | 33321 ft | 515 kts | 234° |
| 2026-03-27 09:31 | 42.39302 | 3.83049 | 33947 ft | 513 kts | 234° |
| 2026-03-27 09:31 | 42.36834 | 3.79570 | 34414 ft | 511 kts | 234° |
| 2026-03-27 09:32 | 42.34377 | 3.76108 | 34914 ft | 509 kts | 234° |
| 2026-03-27 09:32 | 42.31927 | 3.72660 | 35441 ft | 505 kts | 233° |
| 2026-03-27 09:32 | 42.29496 | 3.69246 | 35928 ft | 503 kts | 233° |
| 2026-03-27 09:32 | 42.27075 | 3.65853 | 36400 ft | 501 kts | 233° |
| 2026-03-27 09:33 | 42.24661 | 3.62476 | 36860 ft | 499 kts | 233° |
| 2026-03-27 09:33 | 42.22250 | 3.59108 | 37293 ft | 497 kts | 232° |
| 2026-03-27 09:33 | 42.19849 | 3.55759 | 37675 ft | 496 kts | 232° |
| 2026-03-27 09:33 | 42.17476 | 3.52451 | 37991 ft | 496 kts | 232° |
| 2026-03-27 09:34 | 42.15070 | 3.49096 | 38277 ft | 497 kts | 232° |
| 2026-03-27 09:34 | 42.12659 | 3.45730 | 38557 ft | 498 kts | 232° |
| 2026-03-27 09:34 | 42.10248 | 3.42368 | 38799 ft | 499 kts | 231° |
| 2026-03-27 09:34 | 42.07828 | 3.39000 | 38992 ft | 500 kts | 231° |
| 2026-03-27 09:35 | 42.02968 | 3.32252 | 39071 ft | 502 kts | 231° |
| 2026-03-27 09:35 | 41.98092 | 3.25501 | 39073 ft | 502 kts | 231° |
| 2026-03-27 09:36 | 41.93421 | 3.18547 | 39058 ft | 498 kts | 237° |
| 2026-03-27 09:36 | 41.89200 | 3.11205 | 39065 ft | 495 kts | 238° |
| 2026-03-27 09:37 | 41.85005 | 3.03863 | 39024 ft | 495 kts | 238° |
| 2026-03-27 09:37 | 41.80813 | 2.96562 | 39052 ft | 493 kts | 238° |
| 2026-03-27 09:38 | 41.76641 | 2.89319 | 39050 ft | 493 kts | 238° |
| 2026-03-27 09:38 | 41.72443 | 2.82051 | 39048 ft | 493 kts | 238° |
| 2026-03-27 09:39 | 41.68241 | 2.74801 | 39047 ft | 492 kts | 238° |
| 2026-03-27 09:39 | 41.64040 | 2.67565 | 39051 ft | 492 kts | 238° |
| 2026-03-27 09:40 | 41.59837 | 2.60348 | 39045 ft | 491 kts | 238° |
| 2026-03-27 09:40 | 41.55640 | 2.53155 | 39065 ft | 491 kts | 238° |
| 2026-03-27 09:41 | 41.51435 | 2.45967 | 39068 ft | 490 kts | 238° |
| 2026-03-27 09:41 | 41.47231 | 2.38799 | 39064 ft | 489 kts | 238° |
| 2026-03-27 09:42 | 41.43021 | 2.31636 | 39062 ft | 489 kts | 238° |
| 2026-03-27 09:42 | 41.38817 | 2.24498 | 39054 ft | 489 kts | 237° |
| 2026-03-27 09:43 | 41.32522 | 2.13851 | 39077 ft | 489 kts | 237° |
| 2026-03-27 09:44 | 41.28104 | 2.06908 | 39072 ft | 493 kts | 234° |
| 2026-03-27 09:44 | 41.23516 | 2.00112 | 39070 ft | 493 kts | 234° |
| 2026-03-27 09:45 | 41.18923 | 1.93328 | 39076 ft | 493 kts | 234° |
| 2026-03-27 09:45 | 41.14319 | 1.86529 | 39072 ft | 497 kts | 233° |
| 2026-03-27 09:46 | 41.09670 | 1.79687 | 39089 ft | 499 kts | 233° |
| 2026-03-27 09:46 | 41.05012 | 1.72855 | 39096 ft | 499 kts | 233° |
| 2026-03-27 09:47 | 41.00380 | 1.66065 | 39103 ft | 499 kts | 233° |
| 2026-03-27 09:47 | 40.95718 | 1.59247 | 39101 ft | 499 kts | 233° |
| 2026-03-27 09:48 | 40.91043 | 1.52428 | 39082 ft | 499 kts | 233° |
| 2026-03-27 09:48 | 40.86369 | 1.45605 | 39092 ft | 499 kts | 231° |
| 2026-03-27 09:49 | 40.81690 | 1.38827 | 39111 ft | 498 kts | 231° |
| 2026-03-27 09:49 | 40.77012 | 1.32058 | 39115 ft | 498 kts | 231° |
| 2026-03-27 09:50 | 40.72329 | 1.25295 | 39104 ft | 498 kts | 231° |
| 2026-03-27 09:50 | 40.67680 | 1.18587 | 39103 ft | 498 kts | 231° |
| 2026-03-27 09:51 | 40.63003 | 1.11843 | 39094 ft | 496 kts | 231° |
| 2026-03-27 09:51 | 40.58357 | 1.05167 | 39103 ft | 493 kts | 231° |
| 2026-03-27 09:52 | 40.53718 | 0.98517 | 39106 ft | 493 kts | 231° |
| 2026-03-27 09:52 | 40.49072 | 0.91874 | 39108 ft | 493 kts | 231° |
| 2026-03-27 09:53 | 40.44421 | 0.85244 | 39102 ft | 491 kts | 231° |
| 2026-03-27 09:53 | 40.39787 | 0.78652 | 39105 ft | 490 kts | 231° |
| 2026-03-27 09:54 | 40.35155 | 0.72067 | 39089 ft | 492 kts | 230° |
| 2026-03-27 09:54 | 40.30490 | 0.65464 | 39098 ft | 493 kts | 230° |
| 2026-03-27 09:55 | 40.25819 | 0.58868 | 39097 ft | 493 kts | 230° |
| 2026-03-27 09:55 | 40.21191 | 0.52338 | 39091 ft | 490 kts | 230° |
| 2026-03-27 09:56 | 40.16540 | 0.45798 | 39087 ft | 490 kts | 230° |
| 2026-03-27 09:56 | 40.11892 | 0.39275 | 39088 ft | 490 kts | 230° |
| 2026-03-27 09:57 | 40.07244 | 0.32763 | 39091 ft | 489 kts | 230° |
| 2026-03-27 09:57 | 40.02585 | 0.26257 | 39079 ft | 489 kts | 229° |
| 2026-03-27 09:58 | 39.97953 | 0.19789 | 39088 ft | 486 kts | 229° |
| 2026-03-27 09:58 | 39.93333 | 0.13351 | 39091 ft | 485 kts | 229° |
| 2026-03-27 09:59 | 39.88744 | 0.06971 | 39087 ft | 485 kts | 229° |
| 2026-03-27 09:59 | 39.84118 | 0.00555 | 39091 ft | 485 kts | 229° |
| 2026-03-27 10:00 | 39.79491 | -0.05853 | 39074 ft | 483 kts | 229° |
| 2026-03-27 10:00 | 39.74899 | -0.12196 | 39094 ft | 480 kts | 229° |
| 2026-03-27 10:01 | 39.70310 | -0.18518 | 39096 ft | 480 kts | 229° |
| 2026-03-27 10:01 | 39.65724 | -0.24824 | 39101 ft | 480 kts | 229° |
| 2026-03-27 10:02 | 39.61135 | -0.31120 | 39100 ft | 480 kts | 229° |
| 2026-03-27 10:02 | 39.56569 | -0.37371 | 39100 ft | 479 kts | 229° |
| 2026-03-27 10:03 | 39.51986 | -0.43631 | 39089 ft | 477 kts | 229° |
| 2026-03-27 10:03 | 39.47570 | -0.50040 | 39098 ft | 476 kts | 233° |
| 2026-03-27 10:04 | 39.43552 | -0.56849 | 39085 ft | 475 kts | 235° |
| 2026-03-27 10:04 | 39.39559 | -0.63672 | 39094 ft | 475 kts | 235° |
| 2026-03-27 10:05 | 39.35552 | -0.70496 | 39076 ft | 475 kts | 235° |
| 2026-03-27 10:05 | 39.31547 | -0.77294 | 39065 ft | 475 kts | 235° |
| 2026-03-27 10:06 | 39.27519 | -0.84123 | 39070 ft | 479 kts | 235° |
| 2026-03-27 10:06 | 39.23498 | -0.90924 | 39070 ft | 479 kts | 235° |
| 2026-03-27 10:07 | 39.19444 | -0.97765 | 39064 ft | 479 kts | 235° |
| 2026-03-27 10:07 | 39.15391 | -1.04591 | 39065 ft | 479 kts | 235° |
| 2026-03-27 10:08 | 39.11325 | -1.11420 | 39059 ft | 479 kts | 234° |
| 2026-03-27 10:08 | 39.07270 | -1.18222 | 39056 ft | 478 kts | 234° |
| 2026-03-27 10:09 | 39.03214 | -1.25000 | 39060 ft | 478 kts | 234° |
| 2026-03-27 10:09 | 38.99155 | -1.31777 | 39062 ft | 478 kts | 234° |
| 2026-03-27 10:10 | 38.95778 | -1.37406 | 39062 ft | 478 kts | 234° |
| 2026-03-27 10:10 | 38.91054 | -1.45262 | 39070 ft | 478 kts | 234° |
| 2026-03-27 10:11 | 38.86981 | -1.52017 | 39082 ft | 477 kts | 234° |
| 2026-03-27 10:11 | 38.83607 | -1.57607 | 39085 ft | 476 kts | 234° |
| 2026-03-27 10:12 | 38.79520 | -1.64359 | 39094 ft | 475 kts | 234° |
| 2026-03-27 10:12 | 38.75457 | -1.71056 | 39098 ft | 475 kts | 234° |
| 2026-03-27 10:13 | 38.71412 | -1.77711 | 39097 ft | 475 kts | 234° |
| 2026-03-27 10:13 | 38.67343 | -1.84393 | 39092 ft | 475 kts | 233° |
| 2026-03-27 10:14 | 38.63267 | -1.91072 | 39069 ft | 475 kts | 233° |
| 2026-03-27 10:14 | 38.59184 | -1.97746 | 39074 ft | 476 kts | 233° |
| 2026-03-27 10:15 | 38.55095 | -2.04413 | 39067 ft | 476 kts | 233° |
| 2026-03-27 10:15 | 38.51002 | -2.11076 | 39067 ft | 476 kts | 233° |
| 2026-03-27 10:16 | 38.46911 | -2.17727 | 39063 ft | 476 kts | 233° |
| 2026-03-27 10:16 | 38.42806 | -2.24386 | 39056 ft | 476 kts | 233° |
| 2026-03-27 10:17 | 38.39071 | -2.31334 | 39041 ft | 475 kts | 242° |
| 2026-03-27 10:17 | 38.36183 | -2.38892 | 39047 ft | 473 kts | 250° |
| 2026-03-27 10:18 | 38.34209 | -2.46892 | 39034 ft | 471 kts | 259° |
| 2026-03-27 10:18 | 38.32890 | -2.55020 | 39037 ft | 471 kts | 261° |
| 2026-03-27 10:19 | 38.31601 | -2.63209 | 39033 ft | 471 kts | 261° |
| 2026-03-27 10:19 | 38.30294 | -2.71394 | 39034 ft | 472 kts | 261° |
| 2026-03-27 10:20 | 38.28972 | -2.79607 | 39033 ft | 473 kts | 261° |
| 2026-03-27 10:20 | 38.27612 | -2.88003 | 39040 ft | 473 kts | 261° |
| 2026-03-27 10:21 | 38.26274 | -2.96219 | 39048 ft | 473 kts | 261° |
| 2026-03-27 10:21 | 38.24931 | -3.04424 | 39029 ft | 473 kts | 261° |
| 2026-03-27 10:21 | 38.24256 | -3.08529 | 38800 ft | 473 kts | 261° |
| 2026-03-27 10:22 | 38.23581 | -3.12624 | 38535 ft | 472 kts | 261° |
| 2026-03-27 10:22 | 38.22908 | -3.16701 | 38241 ft | 469 kts | 261° |
| 2026-03-27 10:22 | 38.22236 | -3.20772 | 37973 ft | 467 kts | 261° |
| 2026-03-27 10:22 | 38.21576 | -3.24760 | 37694 ft | 466 kts | 261° |
| 2026-03-27 10:23 | 38.20904 | -3.28809 | 37416 ft | 467 kts | 261° |
| 2026-03-27 10:23 | 38.20231 | -3.32855 | 37157 ft | 468 kts | 261° |
| 2026-03-27 10:23 | 38.19554 | -3.36913 | 36861 ft | 469 kts | 261° |
| 2026-03-27 10:23 | 38.18875 | -3.40977 | 36513 ft | 470 kts | 260° |
| 2026-03-27 10:24 | 38.18192 | -3.45047 | 36002 ft | 471 kts | 261° |
| 2026-03-27 10:24 | 38.17506 | -3.49124 | 35434 ft | 472 kts | 260° |
| 2026-03-27 10:24 | 38.16816 | -3.53224 | 34823 ft | 474 kts | 260° |
| 2026-03-27 10:24 | 38.16123 | -3.57332 | 34198 ft | 476 kts | 260° |
| 2026-03-27 10:25 | 38.15399 | -3.61452 | 33485 ft | 478 kts | 258° |
| 2026-03-27 10:25 | 38.14512 | -3.65541 | 32834 ft | 479 kts | 255° |
| 2026-03-27 10:25 | 38.13534 | -3.69588 | 32277 ft | 478 kts | 255° |
| 2026-03-27 10:25 | 38.12543 | -3.73634 | 31687 ft | 478 kts | 255° |
| 2026-03-27 10:26 | 38.11550 | -3.77673 | 31071 ft | 478 kts | 255° |
| 2026-03-27 10:26 | 38.10556 | -3.81713 | 30452 ft | 479 kts | 255° |
| 2026-03-27 10:26 | 38.09560 | -3.85757 | 29850 ft | 479 kts | 255° |
| 2026-03-27 10:26 | 38.08569 | -3.89777 | 29418 ft | 473 kts | 255° |
| 2026-03-27 10:27 | 38.07590 | -3.93744 | 29008 ft | 468 kts | 255° |
| 2026-03-27 10:27 | 38.06635 | -3.97613 | 28611 ft | 462 kts | 255° |
| 2026-03-27 10:27 | 38.05664 | -4.01542 | 28201 ft | 457 kts | 255° |
| 2026-03-27 10:27 | 38.04727 | -4.05323 | 27813 ft | 452 kts | 255° |
| 2026-03-27 10:28 | 38.03787 | -4.09118 | 27415 ft | 449 kts | 255° |
| 2026-03-27 10:28 | 38.01922 | -4.16622 | 26621 ft | 441 kts | 255° |
| 2026-03-27 10:28 | 38.00999 | -4.20328 | 26239 ft | 438 kts | 255° |
| 2026-03-27 10:29 | 38.00082 | -4.24002 | 25842 ft | 434 kts | 255° |
| 2026-03-27 10:29 | 37.99173 | -4.27639 | 25461 ft | 431 kts | 255° |
| 2026-03-27 10:29 | 37.98268 | -4.31255 | 25065 ft | 427 kts | 255° |
| 2026-03-27 10:29 | 37.97369 | -4.34842 | 24675 ft | 425 kts | 255° |
| 2026-03-27 10:30 | 37.96474 | -4.38410 | 24280 ft | 423 kts | 254° |
| 2026-03-27 10:30 | 37.95594 | -4.41914 | 23902 ft | 421 kts | 254° |
| 2026-03-27 10:30 | 37.94703 | -4.45451 | 23486 ft | 419 kts | 254° |
| 2026-03-27 10:30 | 37.93819 | -4.48960 | 23050 ft | 416 kts | 254° |
| 2026-03-27 10:31 | 37.92939 | -4.52443 | 22656 ft | 412 kts | 254° |
| 2026-03-27 10:31 | 37.92068 | -4.55888 | 22282 ft | 409 kts | 254° |
| 2026-03-27 10:31 | 37.91202 | -4.59309 | 21905 ft | 405 kts | 254° |
| 2026-03-27 10:31 | 37.90343 | -4.62701 | 21530 ft | 402 kts | 254° |
| 2026-03-27 10:32 | 37.89491 | -4.66058 | 21144 ft | 398 kts | 254° |
| 2026-03-27 10:32 | 37.88643 | -4.69391 | 20798 ft | 396 kts | 254° |
| 2026-03-27 10:32 | 37.87798 | -4.72708 | 20432 ft | 394 kts | 254° |
| 2026-03-27 10:32 | 37.86957 | -4.76007 | 20071 ft | 392 kts | 253° |
| 2026-03-27 10:33 | 37.86112 | -4.79314 | 19696 ft | 390 kts | 253° |
| 2026-03-27 10:33 | 37.85285 | -4.82584 | 19342 ft | 388 kts | 255° |
| 2026-03-27 10:33 | 37.84579 | -4.85877 | 18958 ft | 386 kts | 258° |
| 2026-03-27 10:33 | 37.84021 | -4.89206 | 18530 ft | 386 kts | 261° |
| 2026-03-27 10:34 | 37.83506 | -4.92542 | 18096 ft | 385 kts | 261° |
| 2026-03-27 10:34 | 37.82998 | -4.95863 | 17670 ft | 383 kts | 261° |
| 2026-03-27 10:34 | 37.82492 | -4.99170 | 17259 ft | 381 kts | 261° |
| 2026-03-27 10:34 | 37.81984 | -5.02463 | 16872 ft | 380 kts | 261° |
| 2026-03-27 10:35 | 37.81477 | -5.05739 | 16480 ft | 378 kts | 261° |
| 2026-03-27 10:35 | 37.80971 | -5.08999 | 16097 ft | 376 kts | 261° |
| 2026-03-27 10:35 | 37.80466 | -5.12244 | 15713 ft | 374 kts | 261° |
| 2026-03-27 10:35 | 37.79964 | -5.15467 | 15331 ft | 372 kts | 261° |
| 2026-03-27 10:36 | 37.79469 | -5.18633 | 14955 ft | 371 kts | 261° |
| 2026-03-27 10:36 | 37.78962 | -5.21871 | 14565 ft | 369 kts | 261° |
| 2026-03-27 10:36 | 37.78464 | -5.25045 | 14183 ft | 367 kts | 261° |
| 2026-03-27 10:36 | 37.77974 | -5.28165 | 13795 ft | 365 kts | 261° |
| 2026-03-27 10:37 | 37.77478 | -5.31317 | 13381 ft | 363 kts | 261° |
| 2026-03-27 10:37 | 37.76986 | -5.34445 | 12974 ft | 362 kts | 261° |
| 2026-03-27 10:37 | 37.76494 | -5.37560 | 12596 ft | 360 kts | 261° |
| 2026-03-27 10:37 | 37.76004 | -5.40657 | 12203 ft | 358 kts | 261° |
| 2026-03-27 10:38 | 37.75515 | -5.43740 | 11831 ft | 356 kts | 261° |
| 2026-03-27 10:38 | 37.75028 | -5.46809 | 11461 ft | 354 kts | 261° |
| 2026-03-27 10:38 | 37.74544 | -5.49855 | 11091 ft | 353 kts | 261° |
| 2026-03-27 10:38 | 37.74060 | -5.52889 | 10704 ft | 351 kts | 261° |
| 2026-03-27 10:39 | 37.73580 | -5.55890 | 10511 ft | 341 kts | 261° |
| 2026-03-27 10:39 | 37.73117 | -5.58769 | 10419 ft | 328 kts | 261° |
| 2026-03-27 10:39 | 37.72670 | -5.61543 | 10314 ft | 316 kts | 261° |
| 2026-03-27 10:39 | 37.72241 | -5.64210 | 10222 ft | 303 kts | 262° |
| 2026-03-27 10:40 | 37.71829 | -5.66779 | 10148 ft | 294 kts | 262° |
| 2026-03-27 10:40 | 37.71425 | -5.69297 | 10017 ft | 291 kts | 262° |
| 2026-03-27 10:40 | 37.71023 | -5.71802 | 9644 ft | 291 kts | 262° |
| 2026-03-27 10:40 | 37.70622 | -5.74307 | 9356 ft | 290 kts | 261° |
| 2026-03-27 10:41 | 37.70221 | -5.76795 | 9054 ft | 288 kts | 261° |
| 2026-03-27 10:41 | 37.69820 | -5.79270 | 8752 ft | 286 kts | 261° |
| 2026-03-27 10:41 | 37.69421 | -5.81734 | 8458 ft | 286 kts | 261° |
| 2026-03-27 10:41 | 37.69028 | -5.84161 | 8171 ft | 284 kts | 261° |
| 2026-03-27 10:42 | 37.68631 | -5.86606 | 7887 ft | 283 kts | 261° |
| 2026-03-27 10:42 | 37.68236 | -5.89030 | 7605 ft | 281 kts | 261° |
| 2026-03-27 10:42 | 37.67842 | -5.91444 | 7325 ft | 279 kts | 261° |
| 2026-03-27 10:42 | 37.67451 | -5.93842 | 7033 ft | 278 kts | 260° |
| 2026-03-27 10:43 | 37.67061 | -5.96226 | 6756 ft | 276 kts | 260° |
| 2026-03-27 10:43 | 37.66245 | -6.00959 | 6178 ft | 276 kts | 251° |
| 2026-03-27 10:43 | 37.65237 | -6.03001 | 5878 ft | 275 kts | 222° |
| 2026-03-27 10:44 | 37.63732 | -6.04467 | 5617 ft | 272 kts | 213° |
| 2026-03-27 10:44 | 37.62159 | -6.05798 | 5347 ft | 272 kts | 212° |
| 2026-03-27 10:44 | 37.60611 | -6.07102 | 5071 ft | 270 kts | 212° |
| 2026-03-27 10:44 | 37.59066 | -6.08425 | 4824 ft | 267 kts | 212° |
| 2026-03-27 10:45 | 37.57517 | -6.09770 | 4544 ft | 266 kts | 212° |
| 2026-03-27 10:45 | 37.56032 | -6.11071 | 4354 ft | 259 kts | 212° |
| 2026-03-27 10:45 | 37.54579 | -6.12344 | 4221 ft | 249 kts | 212° |
| 2026-03-27 10:45 | 37.53178 | -6.13571 | 4087 ft | 240 kts | 212° |
| 2026-03-27 10:46 | 37.51778 | -6.14678 | 3946 ft | 235 kts | 195° |
| 2026-03-27 10:46 | 37.50207 | -6.14797 | 3826 ft | 225 kts | 162° |
| 2026-03-27 10:46 | 37.48712 | -6.14265 | 3694 ft | 220 kts | 159° |
| 2026-03-27 10:46 | 37.47267 | -6.13727 | 3528 ft | 213 kts | 159° |
| 2026-03-27 10:47 | 37.45866 | -6.13221 | 3360 ft | 205 kts | 160° |
| 2026-03-27 10:47 | 37.44538 | -6.12750 | 3223 ft | 193 kts | 159° |
| 2026-03-27 10:47 | 37.43285 | -6.12316 | 3080 ft | 181 kts | 159° |
| 2026-03-27 10:47 | 37.42252 | -6.11574 | 2963 ft | 168 kts | 123° |
| 2026-03-27 10:48 | 37.41832 | -6.10236 | 2918 ft | 165 kts | 99° |
| 2026-03-27 10:48 | 37.41722 | -6.08801 | 2826 ft | 165 kts | 92° |
| 2026-03-27 10:48 | 37.41721 | -6.07375 | 2582 ft | 157 kts | 89° |
| 2026-03-27 10:48 | 37.41741 | -6.06046 | 2374 ft | 148 kts | 90° |
| 2026-03-27 10:49 | 37.41755 | -6.04767 | 2150 ft | 145 kts | 90° |
| 2026-03-27 10:49 | 37.41760 | -6.03505 | 1990 ft | 144 kts | 90° |
| 2026-03-27 10:49 | 37.41761 | -6.02245 | 1850 ft | 144 kts | 88° |
| 2026-03-27 10:49 | 37.41763 | -6.00989 | 1630 ft | 143 kts | 88° |
| 2026-03-27 10:50 | 37.41766 | -5.99741 | 1423 ft | 142 kts | 88° |
| 2026-03-27 10:50 | 37.41769 | -5.98493 | 1280 ft | 142 kts | 89° |
| 2026-03-27 10:50 | 37.41771 | -5.97248 | 1059 ft | 142 kts | 88° |
| 2026-03-27 10:50 | 37.41773 | -5.96009 | 823 ft | 141 kts | 88° |
| 2026-03-27 10:51 | 37.41775 | -5.94773 | 626 ft | 141 kts | 89° |
| 2026-03-27 10:51 | 37.41777 | -5.93530 | 495 ft | 142 kts | 88° |
| 2026-03-27 10:51 | 37.41779 | -5.92308 | 316 ft | 140 kts | 86° |
| 2026-03-27 10:51 | 37.41787 | -5.91096 | 122 ft | 137 kts | 87° |
| 2026-03-27 10:52 | 37.41791 | -5.90014 | 107 ft | 99 kts | 88° |
| 2026-03-27 10:52 | 37.41794 | -5.89412 | 108 ft | 48 kts | 90° |
| 2026-03-27 10:52 | 37.41796 | -5.89074 | 110 ft | 30 kts | 89° |
| 2026-03-27 10:52 | 37.41796 | -5.88871 | 113 ft | 12 kts | 90° |
| 2026-03-27 10:53 | 37.41800 | -5.88815 | 111 ft | 6 kts | 66° |
| 2026-03-27 10:53 | 37.41845 | -5.88777 | 112 ft | 9 kts | 14° |
| 2026-03-27 10:53 | 37.41923 | -5.88759 | 112 ft | 10 kts | 11° |
| 2026-03-27 10:53 | 37.41971 | -5.88769 | 112 ft | 8 kts | 307° |
| 2026-03-27 10:54 | 37.41981 | -5.88854 | 110 ft | 12 kts | 272° |
| 2026-03-27 10:54 | 37.41983 | -5.88979 | 110 ft | 16 kts | 270° |
| 2026-03-27 10:54 | 37.41983 | -5.89135 | 109 ft | 19 kts | 269° |
| 2026-03-27 10:54 | 37.41982 | -5.89315 | 108 ft | 21 kts | 269° |
| 2026-03-27 10:55 | 37.41981 | -5.89457 | 107 ft | 17 kts | 269° |
| 2026-03-27 10:55 | 37.41981 | -5.89596 | 106 ft | 16 kts | 270° |
| 2026-03-27 10:55 | 37.41981 | -5.89740 | 105 ft | 17 kts | 270° |
| 2026-03-27 10:55 | 37.41988 | -5.89858 | 106 ft | 11 kts | 297° |
| 2026-03-27 10:56 | 37.42046 | -5.89929 | 104 ft | 12 kts | 291° |
| 2026-03-27 10:56 | 37.42053 | -5.90007 | 102 ft | 8 kts | 270° |
| 2026-03-27 10:56 | 37.42055 | -5.90044 | 102 ft | 4 kts | 290° |
| 2026-03-27 10:56 | 37.42081 | -5.90054 | 104 ft | 6 kts | 358° |
| 2026-03-27 10:57 | 37.42118 | -5.90051 | 104 ft | 4 kts | 8° |
| 2026-03-27 10:57 | 37.42127 | -5.90049 | 104 ft | 0 kts | 8° |
| 2026-03-27 11:18 | 37.42119 | -5.90051 | 105 ft | 3 kts | 7° |
| 2026-03-27 11:18 | 37.42099 | -5.90054 | 105 ft | 3 kts | 6° |
| 2026-03-27 11:18 | 37.42085 | -5.90056 | 105 ft | 2 kts | 4° |
| 2026-03-27 11:19 | 37.42071 | -5.90055 | 103 ft | 3 kts | 338° |
| 2026-03-27 11:19 | 37.42063 | -5.90048 | 104 ft | 3 kts | 305° |
| 2026-03-27 11:19 | 37.42056 | -5.90030 | 101 ft | 3 kts | 282° |
| 2026-03-27 11:19 | 37.42053 | -5.90006 | 101 ft | 3 kts | 274° |
| 2026-03-27 11:20 | 37.42053 | -5.89983 | 102 ft | 1 kts | 270° |
| 2026-03-27 11:20 | 37.42053 | -5.89980 | 102 ft | 0 kts | 270° |
| 2026-03-27 11:21 | 37.42053 | -5.89981 | 102 ft | 0 kts | 270° |
| 2026-03-27 11:21 | 37.42053 | -5.90011 | 102 ft | 7 kts | 270° |
| 2026-03-27 11:22 | 37.42045 | -5.90075 | 103 ft | 7 kts | 230° |